Time;durP1;ratioP1;P1;durP2;ratioP2;P2;SDS_P1;SDS_P2;PMS_P1;PMS_P2;Temp;Humidity;BMP_temperature;BMP_pressure;BME280_temperature;BME280_humidity;BME280_pressure;Samples;Min_cycle;Max_cycle;Signal;HPM_P1;HPM_P2
2023/05/12 00:02:24;;;;;;;6.05;2.78;;;25.90;99.90;;;;;;4961416;28;20078;-52
2023/05/12 00:04:50;;;;;;;5.32;2.67;;;25.90;99.90;;;;;;4963697;28;20035;-53
2023/05/12 00:07:16;;;;;;;4.97;2.47;;;25.90;99.90;;;;;;4955822;28;20038;-53
2023/05/12 00:09:42;;;;;;;5.57;2.75;;;25.90;99.90;;;;;;4956079;28;20031;-53
2023/05/12 00:12:08;;;;;;;9.40;2.78;;;25.90;99.90;;;;;;4955869;28;20103;-53
2023/05/12 00:14:35;;;;;;;4.93;3.22;;;25.90;99.90;;;;;;4955997;28;20026;-53
2023/05/12 00:17:03;;;;;;;5.70;2.70;;;25.90;99.90;;;;;;4955979;28;20544;-54
2023/05/12 00:19:28;;;;;;;3.85;2.58;;;25.90;99.90;;;;;;4955886;28;20035;-54
2023/05/12 00:21:54;;;;;;;5.47;2.80;;;25.90;99.90;;;;;;4955676;28;20121;-54
2023/05/12 00:24:20;;;;;;;6.25;3.47;;;25.90;99.90;;;;;;4955786;28;20108;-54
2023/05/12 00:26:45;;;;;;;5.40;2.92;;;25.90;99.90;;;;;;4955497;28;20031;-53
2023/05/12 00:29:11;;;;;;;6.70;3.03;;;25.90;99.90;;;;;;4955653;28;20038;-53
2023/05/12 00:31:37;;;;;;;7.93;3.25;;;25.90;99.90;;;;;;4954347;28;20027;-53
2023/05/12 00:34:03;;;;;;;5.15;2.72;;;25.90;99.90;;;;;;4955900;28;20115;-53
2023/05/12 00:36:29;;;;;;;7.32;2.83;;;25.90;99.90;;;;;;4955588;28;20023;-54
2023/05/12 00:38:55;;;;;;;6.45;2.80;;;25.90;99.90;;;;;;4955516;28;20564;-54
2023/05/12 00:41:21;;;;;;;7.63;2.88;;;25.90;99.90;;;;;;4966302;28;20081;-53
2023/05/12 00:43:47;;;;;;;4.38;2.83;;;25.90;99.90;;;;;;4957235;28;20029;-52
2023/05/12 00:46:13;;;;;;;7.90;3.90;;;25.90;99.90;;;;;;4955532;28;20023;-53
2023/05/12 00:48:39;;;;;;;5.97;3.35;;;25.90;99.90;;;;;;4970063;28;20082;-52
2023/05/12 00:51:05;;;;;;;7.00;2.92;;;25.90;99.90;;;;;;4955394;28;20082;-52
2023/05/12 00:53:31;;;;;;;8.55;3.75;;;25.80;99.90;;;;;;4955361;28;20030;-52
2023/05/12 00:55:57;;;;;;;10.02;3.92;;;25.90;99.90;;;;;;4955359;28;20042;-53
2023/05/12 00:58:23;;;;;;;8.18;3.33;;;25.90;99.90;;;;;;4953948;28;20550;-53
2023/05/12 01:00:49;;;;;;;5.82;3.08;;;25.90;99.90;;;;;;4971581;23;20051;-49
2023/05/12 01:03:16;;;;;;;7.82;4.10;;;25.90;99.90;;;;;;4955464;28;20093;-50
2023/05/12 01:05:52;;;;;;;7.00;3.65;;;25.80;99.90;;;;;;4958053;28;20014;-49
2023/05/12 01:08:19;;;;;;;5.20;3.53;;;25.80;99.90;;;;;;4964276;28;20381;-49
2023/05/12 01:10:46;;;;;;;8.50;4.20;;;25.80;99.90;;;;;;4955028;28;20035;-49
2023/05/12 01:13:11;;;;;;;7.15;4.18;;;25.80;99.90;;;;;;4955291;28;20027;-49
2023/05/12 01:15:42;;;;;;;6.10;3.70;;;25.80;99.90;;;;;;4955191;28;20046;-48
2023/05/12 01:18:09;;;;;;;7.45;4.07;;;25.80;99.90;;;;;;4955096;28;20023;-49
2023/05/12 01:20:36;;;;;;;7.55;4.15;;;25.80;99.90;;;;;;4955103;28;20039;-49
2023/05/12 01:23:03;;;;;;;6.37;4.27;;;25.80;99.90;;;;;;4955059;28;20027;-49
2023/05/12 01:25:32;;;;;;;8.18;4.25;;;25.80;99.90;;;;;;4954744;28;20474;-50
2023/05/12 01:27:59;;;;;;;8.05;4.40;;;25.80;99.90;;;;;;4965968;28;20031;-50
2023/05/12 01:30:25;;;;;;;7.22;4.50;;;25.80;99.90;;;;;;4953755;29;20031;-50
2023/05/12 01:32:52;;;;;;;7.57;4.53;;;25.80;99.90;;;;;;4954775;28;20363;-49
2023/05/12 01:35:17;;;;;;;7.05;4.70;;;25.80;99.90;;;;;;4953352;28;20536;-49
2023/05/12 01:37:44;;;;;;;9.23;4.57;;;25.80;99.90;;;;;;4942210;29;20102;-49
2023/05/12 01:40:10;;;;;;;8.17;5.97;;;25.80;99.90;;;;;;4966313;28;20031;-49
2023/05/12 01:42:39;;;;;;;13.63;6.18;;;25.80;99.90;;;;;;4956174;28;20122;-48
2023/05/12 01:45:06;;;;;;;10.55;5.88;;;25.70;99.90;;;;;;4954997;28;20035;-48
2023/05/12 01:47:32;;;;;;;6.90;5.03;;;25.80;99.90;;;;;;4954420;28;20031;-49
2023/05/12 01:49:57;;;;;;;7.20;4.60;;;25.80;99.90;;;;;;4954720;28;20039;-49
2023/05/12 01:52:24;;;;;;;9.77;5.30;;;25.80;99.90;;;;;;4953221;28;20031;-49
2023/05/12 01:54:50;;;;;;;10.50;5.60;;;25.80;99.90;;;;;;4954581;28;20045;-49
2023/05/12 01:57:16;;;;;;;7.72;5.00;;;25.80;99.90;;;;;;4954334;28;20061;-49
2023/05/12 01:59:42;;;;;;;6.90;5.05;;;25.80;99.90;;;;;;4954226;28;20027;-49
2023/05/12 02:02:08;;;;;;;9.27;5.40;;;25.80;99.90;;;;;;4954815;28;20054;-49
2023/05/12 02:04:34;;;;;;;11.18;5.47;;;25.70;99.90;;;;;;4953221;29;20043;-49
2023/05/12 02:07:00;;;;;;;12.05;5.40;;;25.80;99.90;;;;;;4954285;28;20027;-49
2023/05/12 02:09:26;;;;;;;7.80;5.20;;;25.80;99.90;;;;;;4954203;28;20098;-48
2023/05/12 02:11:52;;;;;;;9.27;4.78;;;25.80;99.90;;;;;;4953086;28;20059;-49
2023/05/12 02:14:18;;;;;;;7.90;5.00;;;25.70;99.90;;;;;;4954275;28;20086;-48
2023/05/12 02:16:44;;;;;;;9.52;5.38;;;25.70;99.90;;;;;;4954127;28;20027;-49
2023/05/12 02:19:10;;;;;;;6.88;4.50;;;25.70;99.90;;;;;;4954010;28;20027;-48
2023/05/12 02:21:35;;;;;;;7.20;4.80;;;25.70;99.90;;;;;;4954136;28;20385;-49
2023/05/12 02:24:01;;;;;;;7.88;4.95;;;25.70;99.90;;;;;;4954073;28;20760;-49
2023/05/12 02:26:27;;;;;;;10.07;5.13;;;25.70;99.90;;;;;;4954236;28;20110;-49
2023/05/12 02:28:53;;;;;;;8.23;5.10;;;25.70;99.90;;;;;;4954123;28;20034;-48
2023/05/12 02:31:19;;;;;;;10.98;5.63;;;25.70;99.90;;;;;;4954018;28;20020;-47
2023/05/12 02:33:44;;;;;;;10.68;5.40;;;25.70;99.90;;;;;;4953923;28;20086;-47
2023/05/12 02:36:10;;;;;;;7.93;5.13;;;25.70;99.90;;;;;;4954148;28;20484;-47
2023/05/12 02:38:36;;;;;;;9.65;5.15;;;25.70;99.90;;;;;;4952971;28;20409;-48
2023/05/12 02:41:02;;;;;;;8.35;4.97;;;25.60;99.90;;;;;;4953801;28;20086;-48
2023/05/12 02:43:27;;;;;;;9.18;4.80;;;25.70;99.90;;;;;;4953834;28;20020;-48
2023/05/12 02:45:53;;;;;;;9.80;5.35;;;25.70;99.90;;;;;;4953895;28;20440;-48
2023/05/12 02:48:19;;;;;;;8.23;5.50;;;25.70;99.90;;;;;;4953906;28;20031;-48
2023/05/12 02:50:45;;;;;;;8.85;5.72;;;25.70;99.90;;;;;;4953752;28;20031;-48
2023/05/12 02:53:10;;;;;;;10.57;5.60;;;25.60;99.90;;;;;;4953879;28;20038;-49
2023/05/12 02:55:36;;;;;;;8.27;5.13;;;25.70;99.90;;;;;;4953804;28;20469;-49
2023/05/12 02:58:02;;;;;;;9.43;5.75;;;25.60;99.90;;;;;;4953665;28;20157;-49
2023/05/12 03:00:28;;;;;;;8.95;5.95;;;25.60;99.90;;;;;;4953850;28;20393;-48
2023/05/12 03:02:53;;;;;;;8.77;5.45;;;25.60;99.90;;;;;;4953717;28;20038;-49
2023/05/12 03:05:19;;;;;;;9.10;5.47;;;25.60;99.90;;;;;;4953423;28;20051;-49
2023/05/12 03:07:48;;;;;;;10.63;6.65;;;25.60;99.90;;;;;;4953798;28;20442;-49
2023/05/12 03:10:14;;;;;;;9.93;6.20;;;25.60;99.90;;;;;;4953687;28;20473;-49
2023/05/12 03:12:40;;;;;;;8.55;5.72;;;25.60;99.90;;;;;;4953937;28;20070;-49
2023/05/12 03:15:07;;;;;;;8.50;5.55;;;25.60;99.90;;;;;;4953400;28;20115;-49
2023/05/12 03:17:33;;;;;;;10.35;6.47;;;25.60;99.90;;;;;;4953579;28;20019;-49
2023/05/12 03:19:59;;;;;;;10.32;6.32;;;25.60;99.90;;;;;;4953594;28;20130;-49
2023/05/12 03:22:25;;;;;;;9.20;5.63;;;25.60;99.90;;;;;;4966227;28;20102;-49
2023/05/12 03:24:51;;;;;;;9.10;5.63;;;25.60;99.90;;;;;;4953579;28;20051;-49
2023/05/12 03:27:17;;;;;;;9.75;5.85;;;25.60;99.90;;;;;;4953883;28;20043;-49
2023/05/12 03:29:42;;;;;;;10.93;6.10;;;25.60;99.90;;;;;;4952405;28;20357;-49
2023/05/12 03:32:08;;;;;;;9.43;5.97;;;25.60;99.90;;;;;;4953364;28;20023;-49
2023/05/12 03:34:34;;;;;;;11.18;5.85;;;25.60;99.90;;;;;;4953721;28;20038;-49
2023/05/12 03:37:00;;;;;;;9.63;6.15;;;25.60;99.90;;;;;;4952175;28;20503;-49
2023/05/12 03:39:26;;;;;;;10.27;5.90;;;25.50;99.90;;;;;;4953449;28;20119;-49
2023/05/12 03:41:51;;;;;;;10.43;6.53;;;25.50;99.90;;;;;;4966162;28;20106;-49
2023/05/12 03:44:17;;;;;;;9.02;6.03;;;25.50;99.90;;;;;;4953395;28;20106;-49
2023/05/12 03:46:43;;;;;;;9.90;5.30;;;25.50;99.90;;;;;;4953691;28;20051;-49
2023/05/12 03:49:09;;;;;;;10.32;5.72;;;25.50;99.90;;;;;;4953269;28;20020;-48
2023/05/12 03:51:35;;;;;;;9.95;5.95;;;25.50;99.90;;;;;;4956420;28;20074;-49
2023/05/12 03:54:00;;;;;;;9.38;5.60;;;25.50;99.90;;;;;;4956542;28;20038;-49
2023/05/12 03:56:27;;;;;;;7.05;4.97;;;25.50;99.90;;;;;;4956644;29;20464;-49
2023/05/12 03:58:53;;;;;;;10.50;5.20;;;25.50;99.90;;;;;;4956433;28;20016;-49
2023/05/12 04:01:19;;;;;;;10.57;5.97;;;25.50;99.90;;;;;;4955621;28;20051;-48
2023/05/12 04:03:44;;;;;;;9.32;5.20;;;25.50;99.90;;;;;;4956591;28;20059;-48
2023/05/12 04:06:11;;;;;;;10.43;6.00;;;25.50;99.90;;;;;;4956595;28;20122;-49
2023/05/12 04:08:37;;;;;;;10.93;5.45;;;25.50;99.90;;;;;;4955097;28;20062;-49
2023/05/12 04:11:03;;;;;;;9.75;5.47;;;25.50;99.90;;;;;;4956359;28;20035;-51
2023/05/12 04:13:30;;;;;;;9.43;5.90;;;25.50;99.90;;;;;;4956308;28;20035;-49
2023/05/12 04:15:57;;;;;;;;;;;25.40;99.90;;;;;;4943937;29;20028;-49
2023/05/12 04:18:23;;;;;;;8.27;4.88;;;25.50;99.90;;;;;;4956179;28;20049;-48
2023/05/12 04:20:49;;;;;;;8.80;5.28;;;25.50;99.90;;;;;;4956178;28;20479;-49
2023/05/12 04:23:15;;;;;;;8.50;4.85;;;25.40;99.90;;;;;;4956272;28;20417;-49
2023/05/12 04:25:41;;;;;;;7.20;4.90;;;25.40;99.90;;;;;;4955970;28;20102;-49
2023/05/12 04:28:09;;;;;;;6.60;4.10;;;25.50;99.90;;;;;;4954927;28;20015;-49
2023/05/12 04:30:35;;;;;;;6.13;4.32;;;25.40;99.90;;;;;;4955894;28;20051;-49
2023/05/12 04:33:01;;;;;;;7.20;4.45;;;25.40;99.90;;;;;;4955999;28;20031;-49
2023/05/12 04:35:27;;;;;;;6.97;4.35;;;25.40;99.90;;;;;;4955746;28;20034;-49
2023/05/12 04:37:53;;;;;;;10.13;4.45;;;25.40;99.90;;;;;;4955808;28;20469;-49
2023/05/12 04:40:19;;;;;;;7.28;4.05;;;25.40;99.90;;;;;;4955891;28;20043;-50
2023/05/12 04:42:45;;;;;;;6.82;4.18;;;25.40;99.90;;;;;;4955829;28;20026;-49
2023/05/12 04:45:11;;;;;;;6.93;3.78;;;25.40;99.90;;;;;;4955646;29;20038;-50
2023/05/12 04:47:36;;;;;;;6.25;3.78;;;25.40;99.90;;;;;;4955654;28;20019;-51
2023/05/12 04:50:05;;;;;;;7.80;3.80;;;25.40;99.90;;;;;;4955719;28;20027;-50
2023/05/12 04:52:31;;;;;;;5.85;3.78;;;25.40;99.90;;;;;;4960772;28;20496;-52
2023/05/12 04:54:57;;;;;;;7.32;3.75;;;25.40;99.90;;;;;;4963212;28;20031;-51
2023/05/12 04:57:23;;;;;;;7.05;3.45;;;25.40;99.90;;;;;;4955333;28;20023;-48
2023/05/12 04:59:49;;;;;;;6.72;3.53;;;25.40;99.90;;;;;;4955729;28;20463;-49
2023/05/12 05:02:15;;;;;;;8.30;4.50;;;25.40;99.90;;;;;;4954200;28;20202;-48
2023/05/12 05:04:40;;;;;;;6.80;3.65;;;25.40;99.90;;;;;;4955371;28;20026;-49
2023/05/12 05:07:06;;;;;;;6.13;3.47;;;25.40;99.90;;;;;;4955280;28;20024;-48
2023/05/12 05:09:32;;;;;;;6.13;3.75;;;25.40;99.90;;;;;;4970167;28;20066;-49
2023/05/12 05:11:58;;;;;;;4.95;3.05;;;25.40;99.90;;;;;;4955572;28;20027;-49
2023/05/12 05:14:24;;;;;;;7.53;3.50;;;25.40;99.90;;;;;;4966379;28;20027;-48
2023/05/12 05:16:49;;;;;;;5.38;2.92;;;25.40;99.90;;;;;;4955094;28;20032;-48
2023/05/12 05:19:15;;;;;;;4.93;3.20;;;25.30;99.90;;;;;;4955083;28;20041;-48
2023/05/12 05:21:41;;;;;;;7.25;3.40;;;25.30;99.90;;;;;;4953865;28;20035;-49
2023/05/12 05:24:07;;;;;;;8.60;3.72;;;25.30;99.90;;;;;;4954730;28;20035;-49
2023/05/12 05:26:33;;;;;;;9.52;3.67;;;25.30;99.90;;;;;;4954964;28;20023;-49
2023/05/12 05:28:59;;;;;;;6.13;3.00;;;25.30;99.90;;;;;;4954592;28;20424;-49
2023/05/12 05:31:27;;;;;;;5.72;3.35;;;25.30;99.90;;;;;;4954834;28;20031;-48
2023/05/12 05:33:53;;;;;;;;;;;25.30;99.90;;;;;;4955400;28;20054;-48
2023/05/12 05:36:22;;;;;;;7.15;3.47;;;25.30;99.90;;;;;;4954929;28;19992;-48
2023/05/12 05:38:48;;;;;;;8.35;3.65;;;25.30;99.90;;;;;;4954492;28;20063;-48
2023/05/12 05:41:14;;;;;;;9.15;3.92;;;25.30;99.90;;;;;;4954711;28;20027;-48
2023/05/12 05:43:39;;;;;;;6.95;3.25;;;25.30;99.90;;;;;;4954774;28;20827;-49
2023/05/12 05:46:06;;;;;;;7.60;3.50;;;25.30;99.90;;;;;;4954611;28;20468;-49
2023/05/12 05:48:32;;;;;;;8.73;3.60;;;25.30;99.90;;;;;;4954646;28;20433;-49
2023/05/12 05:50:57;;;;;;;6.90;3.35;;;25.30;99.90;;;;;;4954517;28;20400;-49
2023/05/12 05:53:23;;;;;;;8.35;3.25;;;25.30;99.90;;;;;;4954553;28;20058;-49
2023/05/12 05:55:49;;;;;;;7.95;3.55;;;25.30;99.90;;;;;;4954374;28;20028;-49
2023/05/12 05:58:15;;;;;;;9.65;4.22;;;25.30;99.90;;;;;;4954538;28;20036;-49
2023/05/12 06:00:42;;;;;;;7.30;4.15;;;25.30;99.90;;;;;;4952756;28;20038;-49
2023/05/12 06:03:08;;;;;;;7.27;4.10;;;25.30;99.90;;;;;;4954205;28;20074;-48
2023/05/12 06:05:34;;;;;;;7.88;3.78;;;25.30;99.90;;;;;;4954268;28;20042;-48
2023/05/12 06:08:00;;;;;;;10.80;3.72;;;25.30;99.90;;;;;;4954291;28;20023;-49
2023/05/12 06:10:26;;;;;;;6.38;3.60;;;25.30;99.90;;;;;;4954469;28;20015;-49
2023/05/12 06:12:52;;;;;;;6.63;3.95;;;25.30;99.90;;;;;;4967043;28;20019;-48
2023/05/12 06:15:17;;;;;;;8.60;3.67;;;25.30;99.90;;;;;;4954141;28;20023;-49
2023/05/12 06:17:44;;;;;;;6.20;3.38;;;25.30;99.90;;;;;;4953977;28;20119;-48
2023/05/12 06:20:12;;;;;;;7.13;3.75;;;25.30;99.90;;;;;;4954053;28;20062;-48
2023/05/12 06:22:38;;;;;;;6.97;3.72;;;25.30;99.90;;;;;;4952735;28;20070;-50
2023/05/12 06:25:04;;;;;;;7.95;3.40;;;25.30;99.90;;;;;;4954056;28;20019;-50
2023/05/12 06:27:30;;;;;;;6.20;3.40;;;25.30;99.90;;;;;;4953688;29;20042;-50
2023/05/12 06:29:56;;;;;;;6.82;3.88;;;25.30;99.90;;;;;;4954237;28;20031;-50
2023/05/12 06:32:21;;;;;;;6.57;3.92;;;25.30;99.90;;;;;;4953530;28;20389;-50
2023/05/12 06:34:47;;;;;;;7.07;3.80;;;25.30;99.90;;;;;;4953884;28;20712;-50
2023/05/12 06:37:14;;;;;;;6.35;3.70;;;25.30;99.90;;;;;;4966289;28;20015;-50
2023/05/12 06:39:39;;;;;;;9.68;4.07;;;25.30;99.90;;;;;;4953788;28;20062;-50
2023/05/12 06:42:05;;;;;;;8.15;3.58;;;25.30;99.90;;;;;;4953871;28;20027;-49
2023/05/12 06:44:31;;;;;;;7.40;3.97;;;25.30;99.90;;;;;;4953775;28;20019;-49
2023/05/12 06:46:57;;;;;;;7.55;3.70;;;25.30;99.90;;;;;;4953925;28;20056;-50
2023/05/12 06:49:23;;;;;;;7.32;3.55;;;25.30;99.90;;;;;;4952551;28;20030;-47
2023/05/12 06:51:49;;;;;;;9.35;4.28;;;25.30;99.90;;;;;;4953874;28;20106;-49
2023/05/12 06:54:14;;;;;;;10.20;3.80;;;25.30;99.90;;;;;;4953583;28;20024;-50
2023/05/12 06:56:40;;;;;;;6.88;4.03;;;25.30;99.90;;;;;;4953732;28;20024;-50
2023/05/12 06:59:06;;;;;;;9.02;3.88;;;25.30;99.90;;;;;;4953581;28;20118;-49
2023/05/12 07:01:32;;;;;;;8.57;4.35;;;25.30;99.90;;;;;;4953446;28;20051;-50
2023/05/12 07:03:58;;;;;;;6.80;3.58;;;25.30;99.90;;;;;;4953773;28;20066;-49
2023/05/12 07:06:28;;;;;;;10.53;4.50;;;25.30;99.90;;;;;;4953763;28;20031;-50
2023/05/12 07:08:54;;;;;;;8.52;3.85;;;25.30;99.90;;;;;;4952229;28;20261;-49
2023/05/12 07:11:21;;;;;;;8.80;4.43;;;25.30;99.90;;;;;;4953745;28;20028;-49
2023/05/12 07:13:47;;;;;;;7.82;4.07;;;25.30;99.90;;;;;;4953574;28;20699;-49
2023/05/12 07:16:14;;;;;;;9.75;3.97;;;25.30;99.90;;;;;;4952166;28;20046;-50
2023/05/12 07:18:39;;;;;;;7.75;4.65;;;25.30;99.90;;;;;;4953203;28;20019;-49
2023/05/12 07:21:05;;;;;;;7.22;3.50;;;25.30;99.90;;;;;;4953507;28;20050;-50
2023/05/12 07:23:33;;;;;;;5.78;3.55;;;25.30;99.90;;;;;;4953539;29;20046;-50
2023/05/12 07:25:59;;;;;;;9.18;4.82;;;25.30;99.90;;;;;;4968563;28;20442;-49
2023/05/12 07:28:25;;;;;;;8.10;4.15;;;25.30;99.90;;;;;;4957034;29;20042;-50
2023/05/12 07:30:50;;;;;;;7.35;4.32;;;25.30;99.90;;;;;;4955733;28;20019;-49
2023/05/12 07:33:16;;;;;;;8.90;4.45;;;25.30;99.90;;;;;;4956959;28;20042;-49
2023/05/12 07:35:42;;;;;;;8.65;3.95;;;25.30;99.90;;;;;;4956992;28;20015;-49
2023/05/12 07:38:08;;;;;;;7.80;4.28;;;25.30;99.90;;;;;;4957163;28;20503;-49
2023/05/12 07:40:34;;;;;;;6.40;3.72;;;25.30;99.90;;;;;;4956799;28;20154;-49
2023/05/12 07:43:01;;;;;;;6.40;4.00;;;25.30;99.90;;;;;;4957073;28;20042;-49
2023/05/12 07:45:27;;;;;;;8.68;4.10;;;25.30;99.90;;;;;;4956754;28;20023;-49
2023/05/12 07:47:53;;;;;;;6.22;3.80;;;25.40;99.90;;;;;;4956654;28;20031;-50
2023/05/12 07:50:19;;;;;;;7.68;4.03;;;25.30;99.90;;;;;;4956707;28;20448;-50
2023/05/12 07:52:46;;;;;;;6.07;3.88;;;25.30;99.90;;;;;;4943989;29;20016;-50
2023/05/12 07:55:12;;;;;;;;;;;25.30;99.90;;;;;;4957076;28;20057;-49
2023/05/12 07:57:38;;;;;;;7.00;4.43;;;25.40;99.90;;;;;;4956500;28;19989;-49
2023/05/12 08:00:05;;;;;;;8.65;3.85;;;25.40;99.90;;;;;;4956198;28;20039;-50
2023/05/12 08:02:30;;;;;;;8.57;4.82;;;25.30;99.90;;;;;;4956275;28;20044;-50
2023/05/12 08:04:56;;;;;;;7.35;4.10;;;25.40;99.90;;;;;;4956461;29;20098;-49
2023/05/12 08:07:22;;;;;;;11.13;4.70;;;25.30;99.90;;;;;;4956394;28;20070;-50
2023/05/12 08:09:48;;;;;;;9.07;4.47;;;25.40;99.90;;;;;;4955098;28;20031;-50
2023/05/12 08:12:13;;;;;;;9.10;4.55;;;25.40;99.90;;;;;;4956267;28;20059;-50
2023/05/12 08:14:39;;;;;;;7.63;4.10;;;25.40;99.90;;;;;;4956159;28;20035;-49
2023/05/12 08:17:05;;;;;;;7.05;4.22;;;25.40;99.90;;;;;;4956043;28;20087;-49
2023/05/12 08:19:31;;;;;;;7.28;5.13;;;25.40;99.90;;;;;;4956467;28;20028;-49
2023/05/12 08:21:57;;;;;;;6.90;4.30;;;25.40;99.90;;;;;;4954738;29;20085;-49
2023/05/12 08:24:23;;;;;;;9.10;4.28;;;25.40;99.90;;;;;;4956096;28;20036;-49
2023/05/12 08:26:48;;;;;;;10.20;4.57;;;25.40;99.90;;;;;;4955698;28;20027;-50
2023/05/12 08:29:15;;;;;;;8.13;4.07;;;25.40;99.90;;;;;;4956081;28;20034;-49
2023/05/12 08:31:41;;;;;;;8.80;4.65;;;25.40;99.90;;;;;;4955916;28;20024;-48
2023/05/12 08:34:07;;;;;;;8.43;4.45;;;25.40;99.90;;;;;;4954533;28;20038;-48
2023/05/12 08:36:33;;;;;;;7.85;4.50;;;25.40;99.90;;;;;;4955080;28;20015;-50
2023/05/12 08:38:59;;;;;;;6.63;4.22;;;25.40;99.90;;;;;;4955696;28;20433;-49
2023/05/12 08:41:52;;;;;;;6.78;4.03;;;25.50;99.90;;;;;;4955904;28;20078;-50
2023/05/12 08:44:18;;;;;;;8.00;4.40;;;25.50;99.90;;;;;;4955563;28;20464;-50
2023/05/12 08:46:46;;;;;;;7.00;4.25;;;25.50;99.90;;;;;;4956016;28;20063;-50
2023/05/12 08:49:16;;;;;;;7.40;4.32;;;25.50;99.90;;;;;;4955538;28;20367;-49
2023/05/12 08:51:44;;;;;;;7.90;4.32;;;25.50;99.90;;;;;;4955727;28;20023;-50
2023/05/12 08:54:12;;;;;;;8.98;4.80;;;25.60;99.90;;;;;;4955450;28;20106;-50
2023/05/12 08:56:39;;;;;;;7.40;4.75;;;25.50;99.90;;;;;;4955562;28;20031;-50
2023/05/12 08:59:07;;;;;;;;;;;25.50;99.90;;;;;;4954641;28;20031;-51
2023/05/12 09:01:41;;;;;;;10.73;4.75;;;25.60;99.90;;;;;;4955554;28;19922;-51
2023/05/12 09:04:07;;;;;;;7.85;4.50;;;25.60;99.90;;;;;;4955403;28;20054;-50
2023/05/12 09:06:34;;;;;;;14.40;4.78;;;25.60;99.90;;;;;;4955484;28;20114;-50
2023/05/12 09:09:00;;;;;;;8.82;4.22;;;25.60;99.90;;;;;;4953887;29;20079;-50
2023/05/12 09:11:25;;;;;;;8.82;4.50;;;25.60;99.90;;;;;;4955001;28;20023;-50
2023/05/12 09:14:01;;;;;;;6.63;3.95;;;25.60;99.90;;;;;;4955170;28;20038;-50
2023/05/12 09:16:31;;;;;;;6.75;3.95;;;25.60;99.90;;;;;;4955332;28;20359;-50
2023/05/12 09:18:58;;;;;;;8.15;4.60;;;25.60;99.90;;;;;;4954882;28;20393;-50
2023/05/12 09:21:25;;;;;;;7.50;4.28;;;25.60;99.90;;;;;;4954965;28;20024;-51
2023/05/12 09:24:06;;;;;;;8.10;4.63;;;25.60;99.90;;;;;;4955068;28;20151;-51
2023/05/12 09:26:49;;;;;;;9.38;5.07;;;25.70;99.90;;;;;;4955084;28;20035;-51
2023/05/12 09:29:15;;;;;;;9.52;5.45;;;25.70;99.90;;;;;;4954993;28;20500;-51
2023/05/12 09:31:52;;;;;;;8.35;5.15;;;25.70;99.90;;;;;;4954873;28;20492;-51
2023/05/12 09:34:19;;;;;;;7.10;4.60;;;25.70;99.90;;;;;;4954772;28;20110;-51
2023/05/12 09:37:01;;;;;;;8.07;5.53;;;25.70;99.90;;;;;;4954724;28;20027;-51
2023/05/12 09:39:27;;;;;;;9.15;5.70;;;25.70;99.90;;;;;;4954749;28;20062;-51
2023/05/12 09:41:54;;;;;;;11.40;6.07;;;25.70;99.90;;;;;;4954732;28;20031;-51
2023/05/12 09:44:20;;;;;;;10.95;6.47;;;25.70;99.90;;;;;;4956750;28;20477;-50
2023/05/12 09:46:47;;;;;;;10.55;5.80;;;25.70;99.90;;;;;;4953398;28;20480;-51
2023/05/12 09:49:18;;;;;;;8.90;5.87;;;25.70;99.90;;;;;;4954184;28;20094;-51
2023/05/12 09:51:44;;;;;;;10.07;6.28;;;25.70;99.90;;;;;;4937493;29;20367;-51
2023/05/12 09:54:09;;;;;;;10.85;6.53;;;25.80;99.90;;;;;;4954609;28;20110;-52
2023/05/12 09:56:36;;;;;;;10.75;6.13;;;25.80;99.90;;;;;;4954685;28;20028;-51
2023/05/12 09:59:04;;;;;;;10.70;6.10;;;25.80;99.90;;;;;;4954236;28;20027;-50
2023/05/12 10:01:30;;;;;;;;;;;25.80;99.90;;;;;;4954609;28;20087;-51
2023/05/12 10:03:58;;;;;;;10.75;6.05;;;25.80;99.90;;;;;;4954381;28;20000;-51
2023/05/12 10:06:30;;;;;;;14.25;7.80;;;25.80;99.90;;;;;;4954466;28;20027;-51
2023/05/12 10:09:10;;;;;;;10.77;6.38;;;25.80;99.90;;;;;;4969021;28;20023;-51
2023/05/12 10:11:36;;;;;;;9.20;6.35;;;25.80;99.90;;;;;;4954065;28;20373;-50
2023/05/12 10:14:03;;;;;;;10.57;6.63;;;25.80;99.90;;;;;;4954073;28;20027;-50
2023/05/12 10:16:29;;;;;;;13.45;8.20;;;25.80;99.90;;;;;;4962531;28;20413;-50
2023/05/12 10:18:55;;;;;;;12.85;7.78;;;25.80;99.90;;;;;;4958335;28;20039;-50
2023/05/12 10:21:23;;;;;;;12.52;7.65;;;25.90;99.90;;;;;;4954117;28;20038;-51
2023/05/12 10:23:51;;;;;;;8.95;6.82;;;25.90;99.90;;;;;;4954023;28;20020;-50
2023/05/12 10:26:17;;;;;;;12.50;7.03;;;25.90;99.90;;;;;;4954066;28;20441;-51
2023/05/12 10:28:45;;;;;;;11.43;7.30;;;25.90;99.90;;;;;;4954223;28;20039;-51
2023/05/12 10:31:10;;;;;;;12.25;6.75;;;25.90;99.90;;;;;;4953935;28;20278;-51
2023/05/12 10:33:36;;;;;;;10.68;6.60;;;25.90;99.90;;;;;;4953818;28;20122;-51
2023/05/12 10:36:02;;;;;;;11.32;6.05;;;25.90;99.90;;;;;;4953895;28;20030;-50
2023/05/12 10:38:36;;;;;;;8.85;5.35;;;25.90;99.90;;;;;;4953903;29;20023;-51
2023/05/12 10:41:05;;;;;;;10.50;5.60;;;25.90;99.90;;;;;;4953841;28;20058;-51
2023/05/12 10:43:45;;;;;;;8.50;5.28;;;25.90;99.90;;;;;;4953901;28;20089;-51
2023/05/12 10:46:11;;;;;;;10.90;6.20;;;25.90;99.90;;;;;;4953864;28;20465;-51
2023/05/12 10:48:48;;;;;;;9.80;5.53;;;25.90;99.90;;;;;;4953860;28;20031;-51
2023/05/12 10:51:27;;;;;;;9.43;5.97;;;26.00;99.90;;;;;;4953916;28;20023;-51
2023/05/12 10:53:59;;;;;;;7.78;4.68;;;26.00;99.90;;;;;;4953527;28;20046;-51
2023/05/12 10:56:42;;;;;;;9.10;4.78;;;26.00;99.90;;;;;;4953527;28;20028;-51
2023/05/12 10:59:11;;;;;;;10.90;5.20;;;26.00;99.90;;;;;;4953408;28;20019;-51
2023/05/12 11:01:37;;;;;;;8.57;4.95;;;26.00;99.90;;;;;;4955459;28;20497;-51
2023/05/12 11:04:14;;;;;;;10.13;4.43;;;26.00;99.90;;;;;;4957354;28;20114;-50
2023/05/12 11:06:40;;;;;;;8.02;4.80;;;26.00;99.90;;;;;;4957647;28;20024;-49
2023/05/12 11:09:06;;;;;;;10.15;4.47;;;26.00;99.90;;;;;;4957407;28;20034;-49
2023/05/12 11:11:32;;;;;;;7.90;4.93;;;26.10;99.90;;;;;;4957462;28;20494;-50
2023/05/12 11:13:59;;;;;;;8.68;4.00;;;26.00;99.90;;;;;;4957267;28;20051;-50
2023/05/12 11:16:25;;;;;;;9.18;4.18;;;26.00;99.90;;;;;;4957237;28;20027;-50
2023/05/12 11:19:01;;;;;;;7.75;4.18;;;26.10;99.90;;;;;;4957006;28;20074;-50
2023/05/12 11:21:28;;;;;;;12.75;5.10;;;26.10;99.90;;;;;;4957235;28;20027;-50
2023/05/12 11:23:54;;;;;;;8.37;4.53;;;26.10;99.90;;;;;;4957106;28;20397;-50
2023/05/12 11:26:20;;;;;;;10.10;3.90;;;26.10;99.90;;;;;;4957270;28;20034;-50
2023/05/12 11:28:46;;;;;;;7.15;4.30;;;26.10;99.90;;;;;;4957291;28;20027;-50
2023/05/12 11:31:18;;;;;;;7.35;3.78;;;26.10;99.90;;;;;;4957144;28;20027;-51
2023/05/12 11:33:44;;;;;;;8.82;4.10;;;26.10;99.90;;;;;;4972568;28;20023;-50
2023/05/12 11:36:10;;;;;;;9.60;4.32;;;26.20;99.90;;;;;;4971018;28;20536;-49
2023/05/12 11:38:35;;;;;;;7.85;4.40;;;26.20;99.90;;;;;;4957159;28;20129;-50
2023/05/12 11:41:01;;;;;;;7.90;3.83;;;26.20;99.90;;;;;;4956584;28;20037;-51
2023/05/12 11:43:28;;;;;;;7.60;3.53;;;26.20;99.90;;;;;;4956817;28;20023;-50
2023/05/12 11:45:58;;;;;;;6.22;3.88;;;26.10;99.90;;;;;;4956780;28;20019;-50
2023/05/12 11:48:33;;;;;;;4.95;2.92;;;26.20;99.90;;;;;;4956778;28;20126;-51
2023/05/12 11:51:00;;;;;;;11.73;3.60;;;26.20;99.90;;;;;;4956456;28;20026;-51
2023/05/12 11:53:25;;;;;;;11.67;4.00;;;26.20;99.90;;;;;;4956647;28;20077;-50
2023/05/12 11:55:53;;;;;;;6.10;3.30;;;26.20;99.90;;;;;;4956493;28;20486;-51
2023/05/12 11:58:29;;;;;;;9.73;3.70;;;26.20;99.90;;;;;;4956596;28;20151;-50
2023/05/12 12:00:56;;;;;;;8.98;3.75;;;26.20;99.90;;;;;;4956139;28;20513;-50
2023/05/12 12:03:23;;;;;;;9.00;3.72;;;26.20;99.90;;;;;;4956835;29;20422;-51
2023/05/12 12:06:01;;;;;;;6.68;3.17;;;26.20;99.90;;;;;;4956610;28;20050;-50
2023/05/12 12:08:26;;;;;;;7.00;3.33;;;26.20;99.90;;;;;;4955353;28;20027;-50
2023/05/12 12:10:52;;;;;;;5.15;3.03;;;26.30;99.90;;;;;;4956091;28;20461;-51
2023/05/12 12:13:23;;;;;;;8.82;3.40;;;26.30;99.90;;;;;;4956442;28;20027;-50
2023/05/12 12:15:49;;;;;;;12.88;3.67;;;26.20;99.90;;;;;;4969303;28;20465;-51
2023/05/12 12:18:16;;;;;;;5.50;2.53;;;26.30;99.90;;;;;;4955374;29;20035;-51
2023/05/12 12:20:42;;;;;;;7.10;2.95;;;26.30;99.90;;;;;;4956087;28;20039;-51
2023/05/12 12:23:09;;;;;;;8.10;3.17;;;26.30;99.90;;;;;;4956217;29;20027;-50
2023/05/12 12:25:34;;;;;;;14.32;2.30;;;26.30;99.90;;;;;;4956087;28;20474;-52
2023/05/12 12:28:01;;;;;;;9.13;2.22;;;26.30;99.90;;;;;;4954877;28;20031;-52
2023/05/12 12:30:27;;;;;;;11.88;4.10;;;26.30;99.90;;;;;;4952646;28;20034;-51
2023/05/12 12:32:52;;;;;;;9.45;2.72;;;26.30;99.90;;;;;;4951710;29;20023;-51
2023/05/12 12:35:18;;;;;;;6.45;1.67;;;26.30;99.90;;;;;;4953712;28;20075;-52
2023/05/12 12:37:50;;;;;;;11.05;2.38;;;26.20;99.90;;;;;;4967937;28;20059;-54
2023/05/12 12:40:17;;;;;;;14.10;5.57;;;26.10;99.90;;;;;;4952926;28;20429;-53
2023/05/12 12:42:43;;;;;;;10.52;3.65;;;26.00;99.90;;;;;;4953390;28;20517;-53
2023/05/12 12:45:09;;;;;;;14.43;4.70;;;26.00;99.90;;;;;;4953611;28;20039;-54